createdAt,value
2018-07-06T00:01:47.061Z,97.20
2018-07-06T00:04:27.232Z,96.50
2018-07-06T00:07:07.330Z,95.80
2018-07-06T00:09:47.624Z,96.40
2018-07-06T00:12:27.601Z,99.10
2018-07-06T00:15:07.738Z,97.80
2018-07-06T00:17:48.175Z,98.70
2018-07-06T00:20:28.639Z,99.60
2018-07-06T00:23:09.400Z,99.80
2018-07-06T00:25:49.556Z,99.00
2018-07-06T00:28:29.791Z,98.70
2018-07-06T00:31:09.792Z,99.80
2018-07-06T00:33:50.129Z,99.90
2018-07-06T00:36:30.268Z,98.70
2018-07-06T00:39:10.574Z,98.50
2018-07-06T00:41:51.106Z,97.40
2018-07-06T00:44:31.066Z,97.20
2018-07-06T00:47:11.228Z,99.90
2018-07-06T00:49:51.106Z,99.90
2018-07-06T00:52:31.258Z,99.90
2018-07-06T00:55:11.699Z,99.90
2018-07-06T00:57:52.769Z,99.90
2018-07-06T01:00:33.097Z,99.90
2018-07-06T01:03:13.295Z,99.90
2018-07-06T01:05:54.606Z,99.90
2018-07-06T01:08:34.888Z,99.90
2018-07-06T01:11:15.036Z,99.90
2018-07-06T01:13:55.267Z,99.90
2018-07-06T01:16:35.246Z,99.90
2018-07-06T01:19:15.445Z,99.90
2018-07-06T01:21:55.862Z,99.90
2018-07-06T01:24:36.055Z,99.90
2018-07-06T01:27:16.179Z,99.90
2018-07-06T01:29:56.186Z,99.90
2018-07-06T01:32:36.270Z,99.90
2018-07-06T01:35:16.388Z,99.90
2018-07-06T01:37:56.584Z,98.80
2018-07-06T01:40:36.517Z,98.50
2018-07-06T01:43:16.609Z,99.30
2018-07-06T01:45:56.639Z,97.80
2018-07-06T01:48:36.928Z,99.10
2018-07-06T01:51:16.929Z,98.20
2018-07-06T01:53:57.029Z,99.90
2018-07-06T01:56:37.065Z,99.90
2018-07-06T01:59:17.706Z,98.80
2018-07-06T02:01:57.858Z,99.90
2018-07-06T02:04:37.977Z,99.90
2018-07-06T02:07:18.240Z,99.90
2018-07-06T02:09:58.389Z,99.90
2018-07-06T02:12:38.569Z,99.90
2018-07-06T02:15:18.930Z,99.90
2018-07-06T02:17:59.609Z,99.90
2018-07-06T02:20:39.416Z,99.90
2018-07-06T02:23:19.782Z,99.90
2018-07-06T02:25:59.875Z,99.90
2018-07-06T02:28:40.295Z,99.90
2018-07-06T02:31:20.436Z,99.90
2018-07-06T02:34:00.596Z,99.90
2018-07-06T02:36:40.786Z,99.90
2018-07-06T02:39:20.917Z,99.90
2018-07-06T02:42:01.129Z,99.90
2018-07-06T02:44:41.647Z,99.90
2018-07-06T02:47:21.477Z,98.60
2018-07-06T02:50:02.786Z,98.00
2018-07-06T02:52:42.791Z,99.90
2018-07-06T02:55:22.805Z,99.90
2018-07-06T02:58:03.190Z,99.90
2018-07-06T03:00:43.018Z,99.90
2018-07-06T03:03:23.258Z,99.90
2018-07-06T03:06:03.098Z,99.90
2018-07-06T03:08:43.245Z,99.90
2018-07-06T03:11:23.490Z,99.70
2018-07-06T03:14:03.782Z,98.40
2018-07-06T03:16:43.725Z,99.90
2018-07-06T03:19:24.301Z,99.90
2018-07-06T03:24:38.775Z,99.90
2018-07-06T03:27:18.788Z,99.90
2018-07-06T03:29:59.063Z,99.90
2018-07-06T03:32:39.136Z,99.90
2018-07-06T03:35:19.806Z,99.90
2018-07-06T03:38:00.214Z,99.90
2018-07-06T03:40:40.356Z,99.90
2018-07-06T03:43:20.387Z,99.90
2018-07-06T03:46:00.978Z,99.90
2018-07-06T03:48:41.014Z,99.90
2018-07-06T03:51:21.160Z,99.90
2018-07-06T03:54:01.429Z,99.90
2018-07-06T03:56:41.697Z,99.90
2018-07-06T03:59:22.053Z,99.90
2018-07-06T04:02:02.119Z,99.90
2018-07-06T04:04:42.339Z,99.90
2018-07-06T04:07:22.718Z,99.90
2018-07-06T04:10:02.833Z,99.90
2018-07-06T04:12:42.982Z,99.90
2018-07-06T04:15:23.792Z,99.90
2018-07-06T04:18:04.360Z,99.90
2018-07-06T04:20:44.444Z,99.90
2018-07-06T04:23:24.749Z,99.90
2018-07-06T04:26:05.125Z,99.90
2018-07-06T04:28:45.349Z,99.90
2018-07-06T04:31:25.288Z,99.90
2018-07-06T04:34:05.868Z,99.90
2018-07-06T04:36:46.310Z,99.90
2018-07-06T04:39:26.766Z,99.90
2018-07-06T04:42:07.253Z,99.90
2018-07-06T04:44:47.228Z,99.90
2018-07-06T04:47:27.158Z,99.90
2018-07-06T04:50:07.321Z,99.90
2018-07-06T04:52:47.470Z,99.90
2018-07-06T04:55:27.844Z,99.90
2018-07-06T04:58:08.063Z,99.90
2018-07-06T05:00:48.431Z,99.90
2018-07-06T05:03:28.306Z,99.20
2018-07-06T05:06:08.554Z,98.50
2018-07-06T05:08:48.396Z,99.40
2018-07-06T05:11:28.760Z,99.90
2018-07-06T05:14:08.989Z,99.60
2018-07-06T05:16:49.275Z,99.90
2018-07-06T05:19:30.207Z,99.90
2018-07-06T05:22:10.556Z,98.50
2018-07-06T05:24:50.680Z,99.90
2018-07-06T05:27:30.622Z,98.40
2018-07-06T05:30:10.992Z,97.80
2018-07-06T05:32:51.101Z,98.30
2018-07-06T05:35:31.479Z,97.30
2018-07-06T05:38:11.519Z,96.10
2018-07-06T05:40:51.840Z,94.60
2018-07-06T05:43:33.316Z,94.20
2018-07-06T05:46:14.302Z,92.90
2018-07-06T05:48:54.308Z,92.90
2018-07-06T05:51:34.386Z,92.30
2018-07-06T05:54:14.560Z,91.30
2018-07-06T05:56:54.552Z,91.20
2018-07-06T05:59:34.580Z,90.60
2018-07-06T06:02:14.790Z,90.10
2018-07-06T06:04:54.766Z,89.50
2018-07-06T06:07:26.491Z,89.80
2018-07-06T06:09:55.829Z,89.00
2018-07-06T06:12:25.190Z,87.60
2018-07-06T06:14:54.985Z,86.90
2018-07-06T06:17:24.409Z,87.00
2018-07-06T06:19:54.167Z,86.10
2018-07-06T06:22:23.708Z,85.10
2018-07-06T06:24:53.143Z,83.80
2018-07-06T06:27:22.789Z,83.30
2018-07-06T06:29:52.537Z,82.60
2018-07-06T06:32:22.409Z,82.90
2018-07-06T06:34:52.012Z,82.20
2018-07-06T06:37:21.730Z,81.60
2018-07-06T06:39:51.420Z,80.50
2018-07-06T06:42:20.849Z,80.10
2018-07-06T06:44:50.448Z,79.50
2018-07-06T06:47:20.076Z,78.80
2018-07-06T06:49:49.808Z,78.80
2018-07-06T06:54:48.539Z,78.60
2018-07-06T06:57:18.028Z,78.00
2018-07-06T06:59:47.481Z,77.30
2018-07-06T07:02:17.310Z,80.20
2018-07-06T07:04:47.007Z,77.40
2018-07-06T07:07:16.572Z,77.70
2018-07-06T07:09:46.762Z,79.50
2018-07-06T07:12:16.145Z,76.80
2018-07-06T07:14:46.510Z,78.60
2018-07-06T07:17:16.158Z,77.20
2018-07-06T07:19:45.697Z,76.80
2018-07-06T07:22:15.187Z,78.10
2018-07-06T07:24:45.410Z,74.80
2018-07-06T07:27:15.735Z,74.70
2018-07-06T07:32:15.728Z,74.70
2018-07-06T07:34:45.148Z,74.40
2018-07-06T07:37:14.620Z,73.80
2018-07-06T07:39:44.226Z,75.40
2018-07-06T07:42:13.566Z,75.90
2018-07-06T07:44:42.817Z,76.70
2018-07-06T07:47:12.259Z,83.50
2018-07-06T07:49:41.887Z,76.20
2018-07-06T07:52:21.956Z,75.90
2018-07-06T07:54:56.760Z,76.20
2018-07-06T07:57:25.981Z,76.50
2018-07-06T07:59:56.307Z,76.50
2018-07-06T08:04:54.957Z,82.50
2018-07-06T08:07:24.431Z,84.20
2018-07-06T08:09:54.088Z,88.50
2018-07-06T08:12:23.575Z,86.90
2018-07-06T08:14:53.429Z,85.30
2018-07-06T08:17:23.501Z,84.10
2018-07-06T08:19:53.189Z,81.30
2018-07-06T08:22:22.501Z,81.10
2018-07-06T08:24:51.767Z,76.60
2018-07-06T08:27:21.622Z,76.70
2018-07-06T08:29:51.173Z,79.00
2018-07-06T08:32:20.849Z,79.10
2018-07-06T08:35:00.879Z,82.40
2018-07-06T08:37:44.522Z,77.90
2018-07-06T08:40:15.238Z,75.40
2018-07-06T08:42:52.952Z,76.20
2018-07-06T08:45:22.539Z,78.30
2018-07-06T08:47:51.801Z,76.20
2018-07-06T08:50:21.222Z,71.00
2018-07-06T08:52:51.374Z,71.50
2018-07-06T08:55:21.932Z,70.00
2018-07-06T08:57:52.737Z,69.60
2018-07-06T09:00:21.941Z,68.80
2018-07-06T09:02:51.105Z,68.30
2018-07-06T09:05:20.412Z,67.70
2018-07-06T09:07:50.050Z,69.40
2018-07-06T09:10:19.529Z,68.80
2018-07-06T09:12:49.741Z,70.40
2018-07-06T09:15:19.403Z,69.50
2018-07-06T09:17:48.707Z,70.60
2018-07-06T09:20:18.306Z,67.30
2018-07-06T09:22:47.772Z,70.90
2018-07-06T09:25:17.368Z,72.40
2018-07-06T09:27:47.562Z,71.50
2018-07-06T09:30:17.069Z,78.10
2018-07-06T09:32:46.338Z,75.50
2018-07-06T09:35:15.619Z,76.00
2018-07-06T09:37:44.972Z,70.80
2018-07-06T09:40:14.425Z,70.80
2018-07-06T09:42:44.253Z,69.50
2018-07-06T09:45:13.491Z,67.80
2018-07-06T09:47:42.856Z,69.00
2018-07-06T09:50:12.400Z,68.80
2018-07-06T09:52:41.487Z,72.80
2018-07-06T09:55:10.858Z,70.90
2018-07-06T09:57:40.621Z,69.40
2018-07-06T10:00:13.460Z,70.50
2018-07-06T10:02:42.902Z,68.20
2018-07-06T10:05:12.277Z,71.10
2018-07-06T10:07:41.533Z,69.40
2018-07-06T10:10:11.103Z,68.90
2018-07-06T10:12:40.596Z,70.80
2018-07-06T10:15:10.056Z,71.30
2018-07-06T10:17:39.660Z,69.90
2018-07-06T10:20:09.416Z,76.00
2018-07-06T10:22:39.072Z,72.30
2018-07-06T10:25:08.487Z,70.30
2018-07-06T10:27:48.455Z,68.50
2018-07-06T10:30:30.571Z,69.00
2018-07-06T10:33:07.304Z,70.40
2018-07-06T10:35:36.985Z,69.40
2018-07-06T10:38:06.699Z,67.00
2018-07-06T10:40:35.938Z,65.70
2018-07-06T10:43:05.451Z,70.40
2018-07-06T10:45:35.007Z,70.60
2018-07-06T10:48:04.617Z,70.40
2018-07-06T10:50:34.009Z,71.70
2018-07-06T10:53:03.420Z,67.90
2018-07-06T10:55:33.073Z,68.00
2018-07-06T10:58:02.675Z,68.30
2018-07-06T11:00:31.988Z,70.60
2018-07-06T11:03:01.782Z,75.00
2018-07-06T11:05:30.952Z,72.30
2018-07-06T11:08:00.349Z,73.00
2018-07-06T11:10:30.464Z,72.10
2018-07-06T11:13:00.015Z,72.20
2018-07-06T11:15:29.512Z,69.10
2018-07-06T11:17:59.092Z,65.50
2018-07-06T11:20:28.580Z,69.00
2018-07-06T11:22:58.087Z,73.20
2018-07-06T11:25:27.683Z,71.80
2018-07-06T11:27:57.182Z,70.00
2018-07-06T11:30:27.104Z,67.50
2018-07-06T11:32:56.517Z,67.60
2018-07-06T11:35:26.052Z,67.20
2018-07-06T11:37:55.393Z,65.60
2018-07-06T11:40:24.660Z,65.00
2018-07-06T11:42:53.930Z,63.50
2018-07-06T11:47:52.571Z,63.20
2018-07-06T11:50:26.023Z,62.60
2018-07-06T11:52:57.862Z,62.80
2018-07-06T11:55:28.573Z,64.10
2018-07-06T11:57:57.952Z,62.90
2018-07-06T12:00:27.660Z,61.60
2018-07-06T12:02:57.118Z,62.80
2018-07-06T12:05:26.285Z,65.90
2018-07-06T12:07:55.739Z,70.40
2018-07-06T12:10:25.472Z,66.50
2018-07-06T12:12:55.087Z,67.20
2018-07-06T12:15:24.204Z,64.80
2018-07-06T12:17:53.469Z,62.30
2018-07-06T12:20:22.830Z,62.40
2018-07-06T12:22:53.346Z,64.30
2018-07-06T12:25:22.801Z,64.90
2018-07-06T12:27:52.302Z,65.00
2018-07-06T12:30:22.020Z,64.00
2018-07-06T12:32:51.750Z,65.30
2018-07-06T12:35:21.363Z,63.60
2018-07-06T12:37:50.783Z,63.50
2018-07-06T12:40:20.176Z,63.40
2018-07-06T12:42:49.320Z,63.40
2018-07-06T12:45:19.082Z,63.80
2018-07-06T12:47:48.550Z,63.60
2018-07-06T12:50:18.319Z,64.10
2018-07-06T12:52:47.795Z,64.30
2018-07-06T12:55:17.223Z,65.40
2018-07-06T12:57:46.693Z,66.20
2018-07-06T13:00:16.290Z,64.10
2018-07-06T13:02:45.337Z,64.50
2018-07-06T13:07:43.422Z,64.00
2018-07-06T13:10:12.941Z,64.00
2018-07-06T13:12:42.349Z,65.70
2018-07-06T13:15:11.679Z,69.40
2018-07-06T13:17:41.057Z,67.00
2018-07-06T13:20:10.551Z,69.40
2018-07-06T13:22:39.811Z,68.10
2018-07-06T13:25:09.212Z,66.30
2018-07-06T13:27:38.664Z,65.30
2018-07-06T13:30:08.572Z,64.90
2018-07-06T13:32:37.718Z,66.00
2018-07-06T13:35:06.909Z,64.90
2018-07-06T13:37:36.393Z,65.80
2018-07-06T13:40:05.790Z,66.40
2018-07-06T13:42:35.632Z,66.10
2018-07-06T13:45:05.009Z,66.10
2018-07-06T13:47:34.140Z,65.30
2018-07-06T13:50:03.610Z,66.20
2018-07-06T13:52:32.950Z,65.10
2018-07-06T13:55:02.535Z,65.10
2018-07-06T13:57:31.647Z,67.90
2018-07-06T14:00:01.446Z,67.20
2018-07-06T14:02:30.850Z,65.80
2018-07-06T14:05:00.263Z,66.20
2018-07-06T14:07:29.449Z,64.90
2018-07-06T14:09:58.627Z,68.30
2018-07-06T14:12:27.808Z,70.00
2018-07-06T14:14:56.998Z,67.70
2018-07-06T14:17:26.451Z,66.90
2018-07-06T14:19:55.901Z,67.70
2018-07-06T14:22:25.436Z,68.10
2018-07-06T14:24:54.937Z,69.80
2018-07-06T14:27:24.427Z,68.50
2018-07-06T14:29:54.057Z,67.60
2018-07-06T14:32:24.296Z,65.80
2018-07-06T14:34:53.803Z,67.20
2018-07-06T14:37:23.191Z,69.00
2018-07-06T14:39:52.639Z,67.10
2018-07-06T14:42:21.952Z,69.20
2018-07-06T14:44:51.459Z,70.10
2018-07-06T14:47:20.991Z,71.90
2018-07-06T14:49:50.439Z,71.90
2018-07-06T14:52:20.114Z,72.40
2018-07-06T14:54:49.788Z,73.60
2018-07-06T14:57:19.354Z,73.50
2018-07-06T14:59:49.016Z,72.80
2018-07-06T15:02:18.758Z,71.30
2018-07-06T15:04:48.471Z,71.40
2018-07-06T15:07:18.425Z,71.30
2018-07-06T15:09:48.106Z,70.50
2018-07-06T15:12:17.929Z,70.40
2018-07-06T15:14:47.948Z,70.50
2018-07-06T15:17:20.684Z,71.30
2018-07-06T15:19:50.116Z,71.40
2018-07-06T15:22:19.668Z,70.10
2018-07-06T15:24:49.040Z,69.60
2018-07-06T15:27:18.298Z,68.40
2018-07-06T15:29:48.096Z,69.40
2018-07-06T15:32:17.916Z,69.30
2018-07-06T15:34:47.318Z,68.80
2018-07-06T15:37:16.705Z,68.70
2018-07-06T15:39:46.174Z,69.10
2018-07-06T15:42:15.923Z,69.20
2018-07-06T15:44:45.308Z,68.00
2018-07-06T15:47:14.787Z,68.20
2018-07-06T15:49:44.256Z,69.40
2018-07-06T15:52:17.278Z,68.70
2018-07-06T15:54:48.051Z,67.90
2018-07-06T15:58:09.454Z,67.90
2018-07-06T16:00:38.857Z,69.30
2018-07-06T16:03:08.515Z,68.90
2018-07-06T16:05:37.951Z,69.10
2018-07-06T16:08:07.307Z,69.30
2018-07-06T16:10:36.954Z,69.10
2018-07-06T16:13:06.397Z,69.10
2018-07-06T16:15:38.783Z,69.50
2018-07-06T16:18:09.079Z,69.40
2018-07-06T16:20:38.465Z,69.80
2018-07-06T16:23:08.244Z,70.40
2018-07-06T16:25:38.536Z,70.40
2018-07-06T16:28:21.841Z,70.90
2018-07-06T16:30:52.822Z,70.90
2018-07-06T16:33:25.799Z,71.30
2018-07-06T16:36:03.183Z,70.80
2018-07-06T16:38:32.524Z,71.10
2018-07-06T16:41:01.782Z,71.20
2018-07-06T16:43:30.987Z,71.70
2018-07-06T16:46:00.298Z,72.00
2018-07-06T16:48:29.756Z,71.90
2018-07-06T16:51:00.683Z,71.20
2018-07-06T16:53:30.317Z,70.40
2018-07-06T16:55:59.911Z,70.50
2018-07-06T16:58:29.189Z,71.90
2018-07-06T17:01:00.434Z,71.20
2018-07-06T17:03:53.735Z,71.60
2018-07-06T17:06:26.562Z,70.60
2018-07-06T17:08:56.012Z,70.60
2018-07-06T17:11:25.388Z,71.10
2018-07-06T17:13:55.794Z,71.60
2018-07-06T17:16:25.359Z,73.20
2018-07-06T17:18:55.093Z,74.40
2018-07-06T17:21:24.252Z,74.80
2018-07-06T17:23:53.291Z,74.80
2018-07-06T17:26:22.480Z,74.50
2018-07-06T17:28:51.738Z,74.90
2018-07-06T17:31:21.317Z,75.60
2018-07-06T17:33:50.713Z,76.50
2018-07-06T17:36:20.077Z,76.30
2018-07-06T17:38:49.725Z,75.60
2018-07-06T17:41:19.197Z,74.80
2018-07-06T17:43:48.816Z,75.80
2018-07-06T17:46:18.340Z,75.00
2018-07-06T17:48:47.472Z,75.40
2018-07-06T17:51:16.952Z,75.60
2018-07-06T17:53:46.228Z,75.70
2018-07-06T17:56:15.681Z,75.70
2018-07-06T17:58:44.812Z,76.30
2018-07-06T18:01:14.292Z,76.70
2018-07-06T18:03:44.430Z,76.90
2018-07-06T18:06:13.755Z,76.30
2018-07-06T18:08:43.378Z,76.70
2018-07-06T18:11:12.569Z,76.30
2018-07-06T18:13:42.199Z,77.70
2018-07-06T18:16:11.915Z,77.50
2018-07-06T18:18:41.357Z,76.50
2018-07-06T18:21:11.077Z,76.50
2018-07-06T18:23:40.618Z,76.90
2018-07-06T18:26:10.072Z,76.90
2018-07-06T18:28:39.437Z,76.50
2018-07-06T18:31:09.137Z,76.80
2018-07-06T18:33:38.490Z,77.00
2018-07-06T18:36:07.639Z,76.10
2018-07-06T18:38:37.519Z,75.20
2018-07-06T18:41:07.002Z,75.10
2018-07-06T18:43:36.227Z,75.80
2018-07-06T18:46:05.823Z,76.40
2018-07-06T18:48:35.361Z,76.90
2018-07-06T18:51:05.118Z,78.30
2018-07-06T18:53:34.628Z,79.50
2018-07-06T18:56:04.059Z,80.80
2018-07-06T18:58:33.874Z,80.90
2018-07-06T19:01:03.666Z,81.40
2018-07-06T19:03:33.503Z,81.40
2018-07-06T19:06:03.123Z,89.80
2018-07-06T19:08:32.568Z,89.30
2018-07-06T19:11:02.438Z,89.90
2018-07-06T19:13:32.126Z,88.00
2018-07-06T19:16:01.645Z,89.60
2018-07-06T19:18:31.156Z,88.70
2018-07-06T19:21:00.894Z,90.10
2018-07-06T19:23:30.733Z,90.50
2018-07-06T19:26:00.384Z,90.90
2018-07-06T19:28:30.108Z,91.80
2018-07-06T19:30:59.333Z,92.70
2018-07-06T19:33:28.979Z,93.60
2018-07-06T19:35:59.379Z,95.30
2018-07-06T19:38:28.848Z,94.30
2018-07-06T19:40:59.111Z,96.30
2018-07-06T19:43:28.538Z,96.40
2018-07-06T19:45:58.105Z,94.30
2018-07-06T19:48:27.565Z,93.20
2018-07-06T19:50:58.004Z,92.30
2018-07-06T19:53:27.123Z,91.90
2018-07-06T19:55:57.478Z,91.40
2018-07-06T19:58:27.297Z,91.20
2018-07-06T20:00:57.176Z,91.30
2018-07-06T20:03:26.632Z,91.50
2018-07-06T20:05:56.255Z,91.40
2018-07-06T20:08:25.696Z,92.30
2018-07-06T20:10:55.312Z,92.80
2018-07-06T20:13:25.190Z,92.90
2018-07-06T20:15:54.726Z,92.40
2018-07-06T20:18:24.234Z,92.30
2018-07-06T20:20:53.996Z,92.30
2018-07-06T20:23:24.114Z,92.00
2018-07-06T20:25:53.724Z,91.00
2018-07-06T20:28:22.972Z,91.40
2018-07-06T20:30:52.507Z,91.20
2018-07-06T20:33:21.977Z,90.80
2018-07-06T20:35:51.723Z,91.10
2018-07-06T20:38:21.279Z,91.50
2018-07-06T20:40:50.877Z,90.80
2018-07-06T20:43:20.431Z,91.40
2018-07-06T20:45:50.008Z,92.60
2018-07-06T20:48:19.294Z,93.90
2018-07-06T20:50:49.005Z,95.60
2018-07-06T20:53:18.862Z,93.50
2018-07-06T20:55:48.211Z,93.60
2018-07-06T20:58:18.000Z,93.60
2018-07-06T21:00:47.629Z,93.60
2018-07-06T21:03:16.869Z,93.50
2018-07-06T21:05:46.324Z,94.30
2018-07-06T21:08:15.782Z,93.20
2018-07-06T21:10:45.224Z,93.80
2018-07-06T21:15:43.512Z,93.20
2018-07-06T21:18:12.994Z,93.00
2018-07-06T21:20:43.323Z,92.30
2018-07-06T21:23:12.822Z,92.40
2018-07-06T21:25:42.958Z,92.10
2018-07-06T21:28:12.465Z,93.20
2018-07-06T21:30:41.859Z,94.30
2018-07-06T21:33:11.733Z,95.80
2018-07-06T21:35:41.269Z,96.90
2018-07-06T21:38:10.986Z,96.70
2018-07-06T21:40:40.289Z,96.30
2018-07-06T21:43:09.668Z,95.50
2018-07-06T21:45:39.288Z,94.00
2018-07-06T21:48:09.134Z,93.50
2018-07-06T21:50:38.415Z,96.20
2018-07-06T21:53:07.987Z,97.40
2018-07-06T21:55:37.719Z,98.70
2018-07-06T21:58:07.093Z,97.40
2018-07-06T22:00:39.717Z,99.30
2018-07-06T22:03:10.802Z,97.20
2018-07-06T22:05:41.365Z,97.10
2018-07-06T22:08:10.948Z,95.50
2018-07-06T22:10:40.709Z,94.60
2018-07-06T22:13:10.371Z,93.90
2018-07-06T22:15:42.913Z,95.10
2018-07-06T22:18:14.413Z,94.70
2018-07-06T22:20:45.101Z,96.30
2018-07-06T22:23:15.236Z,96.90
2018-07-06T22:25:44.815Z,97.60
2018-07-06T22:28:14.317Z,98.40
2018-07-06T22:30:44.004Z,99.90
2018-07-06T22:33:13.363Z,97.80
2018-07-06T22:35:42.765Z,96.50
2018-07-06T22:38:12.484Z,98.10
2018-07-06T22:40:42.106Z,96.60
2018-07-06T22:43:11.596Z,96.10
2018-07-06T22:45:41.520Z,96.00
2018-07-06T22:48:11.270Z,97.30
2018-07-06T22:50:40.849Z,99.80
2018-07-06T22:53:10.576Z,99.90
2018-07-06T22:55:40.408Z,99.90
2018-07-06T22:58:09.882Z,99.90
2018-07-06T23:00:39.854Z,99.90
2018-07-06T23:03:09.387Z,99.90
2018-07-06T23:05:38.671Z,99.90
2018-07-06T23:08:08.244Z,99.90
2018-07-06T23:10:37.916Z,99.90
2018-07-06T23:13:07.408Z,99.90
2018-07-06T23:15:36.985Z,99.90
2018-07-06T23:18:06.546Z,99.90
2018-07-06T23:20:35.976Z,99.90
2018-07-06T23:23:08.539Z,99.90
2018-07-06T23:25:39.396Z,99.90
2018-07-06T23:28:09.155Z,99.90
2018-07-06T23:30:38.854Z,99.90
2018-07-06T23:33:09.239Z,99.90
2018-07-06T23:35:39.008Z,97.10
2018-07-06T23:38:08.460Z,98.50
2018-07-06T23:40:38.078Z,97.30
2018-07-06T23:43:07.862Z,99.90
2018-07-06T23:45:37.596Z,99.90
2018-07-06T23:48:07.392Z,99.70
2018-07-06T23:50:37.063Z,99.90
2018-07-06T23:53:06.823Z,98.70
2018-07-06T23:55:36.409Z,99.80
2018-07-06T23:58:06.316Z,99.90
